createdAt,value
2022-08-05T00:00:50.573Z,101831.09
2022-08-05T00:03:20.230Z,101831.00
2022-08-05T00:06:05.094Z,101828.53
2022-08-05T00:08:37.440Z,101830.94
2022-08-05T00:11:20.592Z,101826.41
2022-08-05T00:13:58.156Z,101829.88
2022-08-05T00:16:35.543Z,101827.84
2022-08-05T00:19:06.702Z,101837.19
2022-08-05T00:21:36.630Z,101833.13
2022-08-05T00:24:10.291Z,101838.22
2022-08-05T00:26:50.736Z,101838.44
2022-08-05T00:29:25.569Z,101848.81
2022-08-05T00:32:13.087Z,101852.81
2022-08-05T00:35:04.825Z,101851.19
2022-08-05T00:37:35.467Z,101847.03
2022-08-05T00:40:27.864Z,101849.22
2022-08-05T00:42:59.533Z,101848.00
2022-08-05T00:45:38.242Z,101845.63
2022-08-05T00:48:09.487Z,101852.31
2022-08-05T00:50:41.905Z,101851.84
2022-08-05T00:54:00.467Z,101847.53
2022-08-05T00:56:01.378Z,101849.97
2022-08-05T00:58:29.918Z,101853.16
2022-08-05T01:01:00.649Z,101854.09
2022-08-05T01:03:30.833Z,101857.69
2022-08-05T01:06:03.849Z,101852.75
2022-08-05T01:08:43.130Z,101855.41
2022-08-05T01:11:22.428Z,101859.84
2022-08-05T01:14:01.743Z,101855.78
2022-08-05T01:16:44.118Z,101859.16
2022-08-05T01:19:36.524Z,101860.66
2022-08-05T01:22:34.171Z,101855.31
2022-08-05T01:25:40.457Z,101860.00
2022-08-05T01:28:33.122Z,101862.91
2022-08-05T01:31:06.223Z,101871.97
2022-08-05T01:33:41.788Z,101859.78
2022-08-05T01:36:21.555Z,101865.06
2022-08-05T01:39:00.958Z,101865.16
2022-08-05T01:41:34.709Z,101865.81
2022-08-05T01:44:09.943Z,101868.72
2022-08-05T01:46:46.241Z,101876.06
2022-08-05T01:49:24.063Z,101875.72
2022-08-05T01:52:00.986Z,101870.19
2022-08-05T01:54:46.052Z,101868.78
2022-08-05T01:58:18.879Z,101867.66
2022-08-05T02:00:14.373Z,101872.16
2022-08-05T02:02:54.415Z,101870.41
2022-08-05T02:05:34.362Z,101873.22
2022-08-05T02:08:06.065Z,101871.78
2022-08-05T02:10:41.360Z,101875.44
2022-08-05T02:13:16.982Z,101877.38
2022-08-05T02:15:55.539Z,101877.84
2022-08-05T02:18:34.294Z,101875.00
2022-08-05T02:21:15.355Z,101871.88
2022-08-05T02:23:46.482Z,101876.59
2022-08-05T02:26:23.696Z,101874.91
2022-08-05T02:28:58.325Z,101885.81
2022-08-05T02:31:38.317Z,101877.91
2022-08-05T02:34:12.128Z,101879.34
2022-08-05T02:36:45.141Z,101878.84
2022-08-05T02:39:21.499Z,101879.25
2022-08-05T02:42:00.874Z,101881.56
2022-08-05T02:44:32.236Z,101882.06
2022-08-05T02:47:07.363Z,101882.00
2022-08-05T02:49:40.531Z,101880.28
2022-08-05T02:52:26.022Z,101882.84
2022-08-05T02:55:01.714Z,101882.16
2022-08-05T02:58:11.378Z,101878.22
2022-08-05T03:00:26.907Z,101878.56
2022-08-05T03:03:00.446Z,101879.16
2022-08-05T03:06:53.879Z,101880.13
2022-08-05T03:08:22.646Z,101874.34
2022-08-05T03:11:53.307Z,101878.31
2022-08-05T03:13:52.130Z,101869.81
2022-08-05T03:16:31.860Z,101873.56
2022-08-05T03:19:04.291Z,101869.97
2022-08-05T03:21:49.380Z,101878.59
2022-08-05T03:24:23.601Z,101880.13
2022-08-05T03:26:59.739Z,101881.47
2022-08-05T03:29:45.240Z,101880.13
2022-08-05T03:32:18.108Z,101874.22
2022-08-05T03:34:50.447Z,101880.88
2022-08-05T03:37:22.619Z,101881.63
2022-08-05T03:40:00.996Z,101884.41
2022-08-05T03:42:32.417Z,101881.28
2022-08-05T03:45:03.485Z,101885.81
2022-08-05T03:47:50.415Z,101886.16
2022-08-05T03:50:21.696Z,101888.09
2022-08-05T03:54:59.258Z,101879.34
2022-08-05T03:56:10.619Z,101874.06
2022-08-05T03:58:48.079Z,101874.91
2022-08-05T04:01:22.555Z,101885.81
2022-08-05T04:04:10.364Z,101885.13
2022-08-05T04:06:47.535Z,101884.00
2022-08-05T04:09:20.470Z,101883.00
2022-08-05T04:11:56.796Z,101881.13
2022-08-05T04:14:30.147Z,101881.56
2022-08-05T04:17:00.891Z,101884.91
2022-08-05T04:19:31.963Z,101873.72
2022-08-05T04:22:09.545Z,101889.53
2022-08-05T04:24:44.345Z,101885.06
2022-08-05T04:27:15.314Z,101873.66
2022-08-05T04:29:44.423Z,101881.03
2022-08-05T04:32:13.997Z,101886.84
2022-08-05T04:34:48.698Z,101885.31
2022-08-05T04:37:18.683Z,101889.28
2022-08-05T04:39:52.917Z,101885.31
2022-08-05T04:42:25.522Z,101895.00
2022-08-05T04:44:54.438Z,101896.88
2022-08-05T04:47:23.329Z,101906.50
2022-08-05T04:50:02.488Z,101899.44
2022-08-05T04:52:41.310Z,101911.69
2022-08-05T04:55:14.628Z,101904.38
2022-08-05T04:57:47.479Z,101898.84
2022-08-05T05:00:17.681Z,101899.78
2022-08-05T05:02:46.609Z,101907.25
2022-08-05T05:05:16.675Z,101900.88
2022-08-05T05:08:01.636Z,101905.41
2022-08-05T05:10:33.405Z,101904.56
2022-08-05T05:13:04.273Z,101922.00
2022-08-05T05:15:56.595Z,101915.19
2022-08-05T05:18:31.194Z,101916.13
2022-08-05T05:21:04.126Z,101929.41
2022-08-05T05:24:02.015Z,101921.34
2022-08-05T05:26:28.491Z,101930.28
2022-08-05T05:29:02.183Z,101923.28
2022-08-05T05:34:02.185Z,101928.72
2022-08-05T05:36:32.478Z,101934.09
2022-08-05T05:39:05.811Z,101931.28
2022-08-05T05:41:40.546Z,101935.91
2022-08-05T05:44:35.621Z,101942.47
2022-08-05T05:47:04.186Z,101938.78
2022-08-05T05:49:33.365Z,101940.81
2022-08-05T05:52:05.867Z,101941.72
2022-08-05T05:54:50.134Z,101936.78
2022-08-05T05:57:20.446Z,101931.69
2022-08-05T05:59:49.395Z,101944.28
2022-08-05T06:02:37.453Z,101950.59
2022-08-05T06:05:16.568Z,101952.97
2022-08-05T06:07:58.012Z,101964.28
2022-08-05T06:10:36.569Z,101957.91
2022-08-05T06:13:06.666Z,101964.22
2022-08-05T06:16:31.237Z,101968.31
2022-08-05T06:18:31.314Z,101970.78
2022-08-05T06:21:03.771Z,101971.72
2022-08-05T06:23:43.826Z,101975.88
2022-08-05T06:26:51.478Z,101978.19
2022-08-05T06:29:25.083Z,101972.03
2022-08-05T06:32:25.292Z,101977.16
2022-08-05T06:34:56.577Z,101974.09
2022-08-05T06:37:57.020Z,101978.97
2022-08-05T06:40:20.934Z,101972.31
2022-08-05T06:42:52.738Z,101987.25
2022-08-05T06:45:43.955Z,101987.91
2022-08-05T06:48:52.475Z,101996.69
2022-08-05T06:51:00.744Z,101994.97
2022-08-05T06:53:30.479Z,102000.34
2022-08-05T06:56:11.713Z,102008.38
2022-08-05T06:58:58.022Z,102019.34
2022-08-05T07:01:42.862Z,102008.69
2022-08-05T07:04:15.372Z,102011.59
2022-08-05T07:06:56.692Z,102005.25
2022-08-05T07:09:37.364Z,102013.97
2022-08-05T07:12:35.646Z,102013.66
2022-08-05T07:16:01.296Z,102013.41
2022-08-05T07:18:30.394Z,102008.69
2022-08-05T07:21:12.531Z,102013.59
2022-08-05T07:23:50.030Z,102015.03
2022-08-05T07:26:22.937Z,102015.06
2022-08-05T07:28:59.683Z,102014.78
2022-08-05T07:31:40.935Z,102011.84
2022-08-05T07:34:21.926Z,102010.97
2022-08-05T07:37:07.038Z,102004.25
2022-08-05T07:40:26.888Z,102003.91
2022-08-05T07:42:31.779Z,102009.81
2022-08-05T07:45:10.573Z,102013.69
2022-08-05T07:47:42.593Z,102006.13
2022-08-05T07:50:12.341Z,102016.91
2022-08-05T07:52:46.840Z,102017.94
2022-08-05T07:55:44.208Z,102023.44
2022-08-05T07:58:06.612Z,102020.97
2022-08-05T08:00:35.723Z,102008.41
2022-08-05T08:03:14.050Z,102024.84
2022-08-05T08:05:49.711Z,102010.97
2022-08-05T08:08:19.993Z,102031.03
2022-08-05T08:10:49.185Z,102030.56
2022-08-05T08:13:21.958Z,102032.94
2022-08-05T08:16:50.215Z,102030.16
2022-08-05T08:18:50.113Z,102033.88
2022-08-05T08:21:19.201Z,102027.50
2022-08-05T08:24:01.846Z,102026.72
2022-08-05T08:26:33.159Z,102030.16
2022-08-05T08:30:03.126Z,102026.44
2022-08-05T08:31:53.923Z,102027.22
2022-08-05T08:34:30.430Z,102024.03
2022-08-05T08:37:03.212Z,102030.22
2022-08-05T08:39:37.108Z,102027.47
2022-08-05T08:42:33.607Z,102028.41
2022-08-05T08:45:24.434Z,102032.03
2022-08-05T08:48:12.635Z,102029.28
2022-08-05T08:51:03.084Z,102048.19
2022-08-05T08:53:44.291Z,102049.06
2022-08-05T08:56:13.973Z,102041.38
2022-08-05T08:58:47.950Z,102043.91
2022-08-05T09:01:19.970Z,102038.91
2022-08-05T09:03:54.344Z,102038.81
2022-08-05T09:06:30.657Z,102035.72
2022-08-05T09:09:02.180Z,102030.09
2022-08-05T09:11:52.007Z,102031.13
2022-08-05T09:14:56.899Z,102032.59
2022-08-05T09:17:39.891Z,102016.63
2022-08-05T09:20:06.729Z,102029.66
2022-08-05T09:23:19.042Z,102023.63
2022-08-05T09:26:02.702Z,102023.63
2022-08-05T09:28:36.367Z,102009.97
2022-08-05T09:31:23.461Z,102019.56
2022-08-05T09:33:59.354Z,102014.19
2022-08-05T09:36:45.843Z,102025.94
2022-08-05T09:39:44.808Z,102027.00
2022-08-05T09:42:24.364Z,102018.78
2022-08-05T09:45:17.791Z,102019.28
2022-08-05T09:47:55.059Z,102013.72
2022-08-05T09:50:38.767Z,102013.56
2022-08-05T09:53:23.155Z,102018.44
2022-08-05T09:56:04.878Z,102021.78
2022-08-05T09:58:41.840Z,102030.16
2022-08-05T10:01:31.596Z,102023.38
2022-08-05T10:04:10.322Z,102025.91
2022-08-05T10:06:54.832Z,102027.19
2022-08-05T10:09:29.836Z,102036.47
2022-08-05T10:12:18.731Z,102027.91
2022-08-05T10:15:25.767Z,102033.56
2022-08-05T10:18:13.957Z,102041.06
2022-08-05T10:20:47.772Z,102042.59
2022-08-05T10:23:34.368Z,102046.41
2022-08-05T10:26:14.218Z,102050.28
2022-08-05T10:28:47.078Z,102054.47
2022-08-05T10:32:49.556Z,102057.13
2022-08-05T10:34:14.601Z,102081.00
2022-08-05T10:36:45.966Z,102083.81
2022-08-05T10:39:24.881Z,102087.41
2022-08-05T10:42:14.978Z,102109.72
2022-08-05T10:44:49.294Z,102117.78
2022-08-05T10:47:25.898Z,102124.84
2022-08-05T10:50:31.615Z,102142.34
2022-08-05T10:53:00.259Z,102146.59
2022-08-05T10:55:38.443Z,102155.00
2022-08-05T10:58:20.783Z,102159.47
2022-08-05T11:00:55.190Z,102163.28
2022-08-05T11:03:33.655Z,102161.59
2022-08-05T11:06:15.214Z,102158.75
2022-08-05T11:09:17.176Z,102155.88
2022-08-05T11:11:52.896Z,102154.94
2022-08-05T11:14:56.320Z,102152.16
2022-08-05T11:17:58.860Z,102143.53
2022-08-05T11:20:45.446Z,102125.03
2022-08-05T11:24:05.130Z,102121.56
2022-08-05T11:26:28.953Z,102112.84
2022-08-05T11:29:11.383Z,102120.34
2022-08-05T11:31:56.361Z,102114.78
2022-08-05T11:34:47.503Z,102104.47
2022-08-05T11:38:26.148Z,102108.47
2022-08-05T11:41:12.842Z,102108.19
2022-08-05T11:44:05.026Z,102095.91
2022-08-05T11:46:37.884Z,102104.25
2022-08-05T11:49:26.126Z,102090.03
2022-08-05T11:51:57.430Z,102086.75
2022-08-05T11:54:33.341Z,102091.53
2022-08-05T11:57:08.325Z,102081.22
2022-08-05T11:59:53.339Z,102100.00
2022-08-05T12:02:31.671Z,102095.28
2022-08-05T12:05:08.221Z,102097.28
2022-08-05T12:08:03.227Z,102095.34
2022-08-05T12:10:45.598Z,102093.16
2022-08-05T12:13:47.698Z,102084.91
2022-08-05T12:16:14.469Z,102085.25
2022-08-05T12:18:48.978Z,102094.47
2022-08-05T12:21:29.856Z,102087.31
2022-08-05T12:24:07.207Z,102083.75
2022-08-05T12:26:37.301Z,102090.19
2022-08-05T12:29:09.875Z,102101.31
2022-08-05T12:31:53.435Z,102091.38
2022-08-05T12:34:28.538Z,102096.78
2022-08-05T12:37:00.832Z,102101.00
2022-08-05T12:39:38.519Z,102104.56
2022-08-05T12:42:14.861Z,102116.09
2022-08-05T12:44:44.872Z,102114.28
2022-08-05T12:47:17.141Z,102115.72
2022-08-05T12:50:03.537Z,102112.06
2022-08-05T12:52:42.233Z,102123.75
2022-08-05T12:55:25.618Z,102119.66
2022-08-05T12:58:38.748Z,102126.19
2022-08-05T13:02:00.417Z,102137.44
2022-08-05T13:03:42.978Z,102131.75
2022-08-05T13:06:17.007Z,102129.91
2022-08-05T13:08:51.762Z,102138.44
2022-08-05T13:11:47.045Z,102135.50
2022-08-05T13:14:24.891Z,102135.00
2022-08-05T13:17:09.365Z,102135.06
2022-08-05T13:19:52.414Z,102134.66
2022-08-05T13:22:28.033Z,102138.38
2022-08-05T13:25:00.863Z,102131.56
2022-08-05T13:27:39.274Z,102120.16
2022-08-05T13:30:34.787Z,102137.97
2022-08-05T13:33:01.588Z,102131.81
2022-08-05T13:35:47.465Z,102122.25
2022-08-05T13:38:30.345Z,102115.50
2022-08-05T13:41:01.775Z,102110.84
2022-08-05T13:43:44.437Z,102117.34
2022-08-05T13:46:37.695Z,102116.63
2022-08-05T13:49:12.921Z,102118.13
2022-08-05T13:51:46.658Z,102117.91
2022-08-05T13:54:17.098Z,102121.13
2022-08-05T13:56:51.775Z,102114.53
2022-08-05T13:59:26.957Z,102118.66
2022-08-05T14:02:00.098Z,102124.53
2022-08-05T14:04:52.211Z,102113.66
2022-08-05T14:07:56.240Z,102123.88
2022-08-05T14:10:31.483Z,102127.28
2022-08-05T14:13:01.475Z,102121.41
2022-08-05T14:16:08.238Z,102133.47
2022-08-05T14:18:23.402Z,102138.00
2022-08-05T14:20:54.896Z,102137.94
2022-08-05T14:23:25.480Z,102134.50
2022-08-05T14:25:58.436Z,102137.56
2022-08-05T14:28:29.021Z,102138.63
2022-08-05T14:31:00.498Z,102144.06
2022-08-05T14:33:32.484Z,102138.91
2022-08-05T14:36:20.514Z,102144.59
2022-08-05T14:38:52.742Z,102147.53
2022-08-05T14:41:23.950Z,102149.34
2022-08-05T14:44:02.597Z,102146.59
2022-08-05T14:46:40.159Z,102146.91
2022-08-05T14:49:08.683Z,102151.31
2022-08-05T14:51:38.381Z,102140.03
2022-08-05T14:54:28.328Z,102144.03
2022-08-05T14:56:56.978Z,102143.44
2022-08-05T14:59:29.563Z,102141.00
2022-08-05T15:02:15.774Z,102129.16
2022-08-05T15:04:45.004Z,102136.25
2022-08-05T15:08:06.379Z,102141.66
2022-08-05T15:10:09.950Z,102141.78
2022-08-05T15:12:57.949Z,102139.19
2022-08-05T15:15:55.307Z,102138.38
2022-08-05T15:18:17.657Z,102138.19
2022-08-05T15:20:46.256Z,102136.25
2022-08-05T15:23:19.506Z,102133.78
2022-08-05T15:25:52.036Z,102131.75
2022-08-05T15:28:27.025Z,102154.28
2022-08-05T15:30:57.315Z,102150.97
2022-08-05T15:34:19.353Z,102153.72
2022-08-05T15:36:17.638Z,102134.50
2022-08-05T15:40:59.775Z,102141.63
2022-08-05T15:41:57.548Z,102152.03
2022-08-05T15:44:31.090Z,102163.63
2022-08-05T15:47:00.476Z,102161.50
2022-08-05T15:49:58.539Z,102161.69
2022-08-05T15:52:51.562Z,102157.53
2022-08-05T15:55:25.107Z,102158.44
2022-08-05T15:58:16.499Z,102163.81
2022-08-05T16:01:16.716Z,102169.25
2022-08-05T16:03:50.560Z,102160.19
2022-08-05T16:06:23.050Z,102162.31
2022-08-05T16:08:55.332Z,102162.03
2022-08-05T16:11:48.548Z,102152.81
2022-08-05T16:14:24.006Z,102160.19
2022-08-05T16:16:55.730Z,102158.88
2022-08-05T16:20:03.220Z,102141.59
2022-08-05T16:22:19.335Z,102148.72
2022-08-05T16:24:56.762Z,102144.06
2022-08-05T16:27:32.180Z,102137.13
2022-08-05T16:30:25.711Z,102155.00
2022-08-05T16:32:56.269Z,102152.19
2022-08-05T16:35:28.501Z,102145.47
2022-08-05T16:38:23.830Z,102147.97
2022-08-05T16:40:59.659Z,102158.81
2022-08-05T16:43:30.562Z,102158.94
2022-08-05T16:46:06.860Z,102147.34
2022-08-05T16:48:39.504Z,102157.69
2022-08-05T16:51:10.615Z,102162.22
2022-08-05T16:54:03.141Z,102165.03
2022-08-05T16:56:34.379Z,102163.06
2022-08-05T16:59:15.716Z,102178.75
2022-08-05T17:01:53.177Z,102172.63
2022-08-05T17:04:26.535Z,102176.31
2022-08-05T17:07:00.467Z,102170.28
2022-08-05T17:09:57.657Z,102174.97
2022-08-05T17:12:22.359Z,102151.13
2022-08-05T17:15:10.275Z,102153.69
2022-08-05T17:17:44.511Z,102162.00
2022-08-05T17:20:14.745Z,102162.91
2022-08-05T17:22:43.451Z,102157.81
2022-08-05T17:25:33.946Z,102162.03
2022-08-05T17:28:05.501Z,102173.19
2022-08-05T17:30:34.569Z,102177.69
2022-08-05T17:33:19.971Z,102177.31
2022-08-05T17:36:09.112Z,102173.88
2022-08-05T17:38:37.867Z,102176.41
2022-08-05T17:41:22.775Z,102177.16
2022-08-05T17:43:59.304Z,102176.19
2022-08-05T17:46:27.793Z,102176.50
2022-08-05T17:48:56.603Z,102180.78
2022-08-05T17:51:26.934Z,102188.06
2022-08-05T17:53:55.445Z,102191.03
2022-08-05T17:56:28.232Z,102203.72
2022-08-05T17:58:57.395Z,102207.09
2022-08-05T18:01:27.990Z,102201.69
2022-08-05T18:04:21.062Z,102204.88
2022-08-05T18:06:51.680Z,102209.97
2022-08-05T18:09:22.623Z,102215.78
2022-08-05T18:12:15.516Z,102217.25
2022-08-05T18:14:52.930Z,102213.81
2022-08-05T18:18:00.750Z,102201.31
2022-08-05T18:20:14.945Z,102225.97
2022-08-05T18:22:53.882Z,102209.25
2022-08-05T18:25:23.472Z,102219.88
2022-08-05T18:27:57.084Z,102231.94
2022-08-05T18:30:26.302Z,102235.19
2022-08-05T18:33:00.164Z,102233.88
2022-08-05T18:36:00.640Z,102234.88
2022-08-05T18:38:26.038Z,102240.84
2022-08-05T18:41:57.045Z,102241.97
2022-08-05T18:43:48.995Z,102238.06
2022-08-05T18:46:20.149Z,102242.41
2022-08-05T18:48:53.666Z,102253.56
2022-08-05T18:52:05.024Z,102251.19
2022-08-05T18:54:31.479Z,102251.81
2022-08-05T18:57:01.435Z,102247.94
2022-08-05T18:59:43.924Z,102252.91
2022-08-05T19:02:26.928Z,102253.41
2022-08-05T19:05:03.189Z,102262.44
2022-08-05T19:07:50.342Z,102266.00
2022-08-05T19:10:26.603Z,102262.34
2022-08-05T19:12:57.412Z,102260.94
2022-08-05T19:15:59.323Z,102263.34
2022-08-05T19:18:26.309Z,102266.06
2022-08-05T19:20:56.354Z,102260.38
2022-08-05T19:24:05.863Z,102267.91
2022-08-05T19:26:14.142Z,102272.59
2022-08-05T19:28:43.422Z,102269.59
2022-08-05T19:31:17.697Z,102273.59
2022-08-05T19:33:56.613Z,102276.09
2022-08-05T19:36:26.667Z,102279.72
2022-08-05T19:39:01.037Z,102283.91
2022-08-05T19:41:58.250Z,102276.13
2022-08-05T19:44:19.549Z,102288.50
2022-08-05T19:46:50.276Z,102285.91
2022-08-05T19:49:19.108Z,102286.88
2022-08-05T19:52:09.100Z,102292.47
2022-08-05T19:54:37.211Z,102296.25
2022-08-05T19:57:09.645Z,102298.28
2022-08-05T19:59:55.476Z,102304.16
2022-08-05T20:02:32.561Z,102310.47
2022-08-05T20:05:04.810Z,102312.44
2022-08-05T20:07:47.341Z,102314.50
2022-08-05T20:10:22.146Z,102319.47
2022-08-05T20:12:53.270Z,102323.25
2022-08-05T20:15:23.147Z,102325.31
2022-08-05T20:18:33.534Z,102324.94
2022-08-05T20:21:01.645Z,102336.47
2022-08-05T20:24:01.135Z,102342.28
2022-08-05T20:26:30.071Z,102340.06
2022-08-05T20:29:01.078Z,102343.22
2022-08-05T20:31:43.086Z,102348.78
2022-08-05T20:34:22.108Z,102356.06
2022-08-05T20:36:51.872Z,102364.56
2022-08-05T20:39:20.531Z,102362.81
2022-08-05T20:41:50.470Z,102369.63
2022-08-05T20:44:30.235Z,102371.78
2022-08-05T20:47:00.104Z,102379.25
2022-08-05T20:49:33.277Z,102378.75
2022-08-05T20:52:08.813Z,102385.38
2022-08-05T20:54:42.819Z,102383.50
2022-08-05T20:57:14.165Z,102388.88
2022-08-05T20:59:46.108Z,102389.00
2022-08-05T21:02:39.253Z,102390.59
2022-08-05T21:05:11.300Z,102396.72
2022-08-05T21:07:50.716Z,102397.91
2022-08-05T21:10:20.665Z,102402.09
2022-08-05T21:13:09.006Z,102403.81
2022-08-05T21:15:51.124Z,102405.19
2022-08-05T21:18:20.071Z,102407.78
2022-08-05T21:20:55.735Z,102402.69
2022-08-05T21:23:25.474Z,102409.56
2022-08-05T21:25:55.990Z,102407.69
2022-08-05T21:28:30.824Z,102408.97
2022-08-05T21:30:59.923Z,102408.53
2022-08-05T21:33:36.819Z,102415.34
2022-08-05T21:36:11.001Z,102408.44
2022-08-05T21:38:40.846Z,102419.53
2022-08-05T21:41:09.672Z,102416.00
2022-08-05T21:43:41.887Z,102420.00
2022-08-05T21:46:11.912Z,102419.94
2022-08-05T21:48:40.865Z,102421.63
2022-08-05T21:51:25.073Z,102420.78
2022-08-05T21:54:03.766Z,102427.41
2022-08-05T21:56:33.116Z,102420.97
2022-08-05T21:59:08.105Z,102421.53
2022-08-05T22:01:50.153Z,102423.88
2022-08-05T22:04:25.424Z,102426.00
2022-08-05T22:06:58.571Z,102435.47
2022-08-05T22:09:46.228Z,102432.91
2022-08-05T22:12:26.282Z,102439.94
2022-08-05T22:14:57.014Z,102438.25
2022-08-05T22:17:26.100Z,102443.13
2022-08-05T22:20:00.166Z,102445.34
2022-08-05T22:22:54.366Z,102442.22
2022-08-05T22:26:09.537Z,102454.81
2022-08-05T22:28:31.963Z,102457.88
2022-08-05T22:31:05.185Z,102463.09
2022-08-05T22:33:57.168Z,102457.16
2022-08-05T22:36:23.765Z,102458.13
2022-08-05T22:38:54.538Z,102459.16
2022-08-05T22:42:05.419Z,102445.72
2022-08-05T22:44:12.293Z,102456.31
2022-08-05T22:46:41.130Z,102455.31
2022-08-05T22:49:12.432Z,102450.09
2022-08-05T22:52:05.945Z,102450.53
2022-08-05T22:54:38.951Z,102459.03
2022-08-05T22:57:08.662Z,102453.25
2022-08-05T22:59:43.735Z,102457.41
2022-08-05T23:02:16.742Z,102461.31
2022-08-05T23:04:52.032Z,102452.59
2022-08-05T23:07:22.407Z,102452.00
2022-08-05T23:10:01.010Z,102461.69
2022-08-05T23:12:32.816Z,102473.25
2022-08-05T23:15:03.932Z,102476.69
2022-08-05T23:18:00.944Z,102481.72
2022-08-05T23:20:26.702Z,102480.19
2022-08-05T23:22:56.587Z,102481.03
2022-08-05T23:25:52.294Z,102491.84
2022-08-05T23:28:18.212Z,102491.66
2022-08-05T23:30:53.751Z,102491.44
2022-08-05T23:34:02.943Z,102504.44
2022-08-05T23:36:13.823Z,102504.72
2022-08-05T23:38:43.991Z,102512.22
2022-08-05T23:41:14.091Z,102505.78
2022-08-05T23:44:04.893Z,102516.13
2022-08-05T23:46:31.965Z,102520.09
2022-08-05T23:49:02.124Z,102530.63
2022-08-05T23:52:01.968Z,102528.44
2022-08-05T23:54:36.530Z,102538.56
2022-08-05T23:57:10.416Z,102537.91
